createdAt,value
2022-08-17T00:01:55.493Z,12.05
2022-08-17T00:03:58.379Z,8.18
2022-08-17T00:06:03.676Z,8.88
2022-08-17T00:08:09.376Z,11.45
2022-08-17T00:10:12.370Z,12.15
2022-08-17T00:12:51.263Z,11.82
2022-08-17T00:14:38.905Z,8.13
2022-08-17T00:16:55.480Z,9.52
2022-08-17T00:19:08.480Z,9.25
2022-08-17T00:21:12.452Z,9.20
2022-08-17T00:23:19.518Z,8.90
2022-08-17T00:25:22.474Z,9.90
2022-08-17T00:27:25.585Z,8.25
2022-08-17T00:29:28.540Z,9.73
2022-08-17T00:31:31.500Z,8.43
2022-08-17T00:33:34.893Z,13.15
2022-08-17T00:35:39.178Z,10.55
2022-08-17T00:37:42.582Z,10.23
2022-08-17T00:39:48.204Z,12.90
2022-08-17T00:41:51.211Z,9.25
2022-08-17T00:43:56.786Z,9.30
2022-08-17T00:46:01.851Z,9.07
2022-08-17T00:48:05.017Z,12.35
2022-08-17T00:50:16.941Z,10.57
2022-08-17T00:52:24.421Z,10.93
2022-08-17T00:54:31.342Z,8.45
2022-08-17T00:56:42.608Z,10.85
2022-08-17T00:58:45.778Z,10.77
2022-08-17T01:00:49.751Z,10.57
2022-08-17T01:02:56.076Z,10.65
2022-08-17T01:04:59.106Z,9.90
2022-08-17T01:07:03.777Z,9.43
2022-08-17T01:09:06.890Z,11.05
2022-08-17T01:11:09.867Z,14.07
2022-08-17T01:13:15.777Z,9.00
2022-08-17T01:15:18.802Z,12.63
2022-08-17T01:17:21.823Z,11.52
2022-08-17T01:19:26.779Z,9.68
2022-08-17T01:21:35.803Z,10.32
2022-08-17T01:23:41.532Z,12.43
2022-08-17T01:25:45.497Z,9.80
2022-08-17T01:27:52.280Z,8.98
2022-08-17T01:30:00.272Z,10.48
2022-08-17T01:32:06.358Z,11.70
2022-08-17T01:34:11.753Z,10.23
2022-08-17T01:36:15.351Z,12.50
2022-08-17T01:38:18.561Z,15.48
2022-08-17T01:40:36.402Z,10.77
2022-08-17T01:42:42.982Z,11.68
2022-08-17T01:44:45.607Z,12.10
2022-08-17T01:46:48.360Z,12.02
2022-08-17T01:48:51.011Z,11.27
2022-08-17T01:50:54.022Z,10.25
2022-08-17T01:52:59.994Z,12.48
2022-08-17T01:55:04.797Z,14.13
2022-08-17T01:57:10.660Z,11.45
2022-08-17T01:59:14.769Z,12.40
2022-08-17T02:01:21.031Z,11.60
2022-08-17T02:03:25.057Z,12.63
2022-08-17T02:05:28.023Z,12.27
2022-08-17T02:07:31.128Z,13.32
2022-08-17T02:09:34.533Z,10.80
2022-08-17T02:11:38.181Z,10.65
2022-08-17T02:13:43.970Z,11.23
2022-08-17T02:15:47.364Z,10.60
2022-08-17T02:17:54.701Z,11.48
2022-08-17T02:19:58.110Z,13.15
2022-08-17T02:22:01.107Z,11.65
2022-08-17T02:24:06.806Z,11.45
2022-08-17T02:26:10.109Z,13.93
2022-08-17T02:28:28.604Z,13.25
2022-08-17T02:31:01.228Z,11.57
2022-08-17T02:32:57.732Z,14.15
2022-08-17T02:35:01.123Z,14.75
2022-08-17T02:37:04.265Z,10.32
2022-08-17T02:39:10.331Z,13.32
2022-08-17T02:41:13.417Z,12.32
2022-08-17T02:43:16.802Z,12.65
2022-08-17T02:45:22.412Z,12.10
2022-08-17T02:47:28.548Z,11.32
2022-08-17T02:49:31.579Z,10.73
2022-08-17T02:51:34.961Z,11.20
2022-08-17T02:53:38.081Z,10.82
2022-08-17T02:55:42.503Z,10.90
2022-08-17T02:57:45.493Z,10.70
2022-08-17T02:59:49.227Z,12.88
2022-08-17T03:01:52.376Z,13.80
2022-08-17T03:03:58.109Z,12.38
2022-08-17T03:06:01.536Z,10.82
2022-08-17T03:08:06.184Z,12.23
2022-08-17T03:10:10.721Z,14.48
2022-08-17T03:12:15.517Z,14.93
2022-08-17T03:14:18.957Z,11.48
2022-08-17T03:16:29.506Z,11.70
2022-08-17T03:18:32.569Z,12.93
2022-08-17T03:20:38.305Z,13.50
2022-08-17T03:22:47.830Z,14.32
2022-08-17T03:24:56.913Z,11.43
2022-08-17T03:26:59.881Z,10.07
2022-08-17T03:29:03.198Z,12.27
2022-08-17T03:31:07.422Z,11.85
2022-08-17T03:33:12.569Z,12.43
2022-08-17T03:35:18.920Z,16.80
2022-08-17T03:37:24.532Z,11.23
2022-08-17T03:39:27.570Z,9.85
2022-08-17T03:41:30.733Z,14.00
2022-08-17T03:43:33.976Z,10.77
2022-08-17T03:45:37.437Z,13.00
2022-08-17T03:47:41.655Z,11.57
2022-08-17T03:49:49.229Z,10.98
2022-08-17T03:51:52.657Z,11.68
2022-08-17T03:53:59.382Z,16.77
2022-08-17T03:56:04.010Z,14.70
2022-08-17T03:58:06.971Z,10.10
2022-08-17T04:00:11.247Z,16.48
2022-08-17T04:02:18.326Z,13.00
2022-08-17T04:04:27.769Z,10.70
2022-08-17T04:08:35.309Z,14.40
2022-08-17T04:10:45.011Z,16.35
2022-08-17T04:12:50.421Z,15.15
2022-08-17T04:14:54.880Z,11.95
2022-08-17T04:16:58.317Z,10.63
2022-08-17T04:19:01.621Z,10.27
2022-08-17T04:21:04.925Z,12.38
2022-08-17T04:23:10.351Z,16.02
2022-08-17T04:25:16.926Z,11.88
2022-08-17T04:27:22.557Z,12.85
2022-08-17T04:29:26.044Z,12.40
2022-08-17T04:31:47.726Z,13.65
2022-08-17T04:33:50.835Z,12.57
2022-08-17T04:35:57.160Z,13.50
2022-08-17T04:38:00.180Z,11.55
2022-08-17T04:40:04.566Z,15.32
2022-08-17T04:42:08.671Z,17.42
2022-08-17T04:44:14.437Z,10.85
2022-08-17T04:46:38.026Z,11.25
2022-08-17T04:48:43.878Z,13.52
2022-08-17T04:50:51.145Z,18.85
2022-08-17T04:52:54.227Z,13.30
2022-08-17T04:54:57.290Z,15.10
2022-08-17T04:57:00.273Z,13.80
2022-08-17T04:59:08.739Z,15.50
2022-08-17T05:01:23.624Z,10.85
2022-08-17T05:03:27.585Z,12.82
2022-08-17T05:05:33.986Z,11.68
2022-08-17T05:07:37.027Z,10.63
2022-08-17T05:09:40.009Z,12.45
2022-08-17T05:11:45.061Z,12.88
2022-08-17T05:13:49.144Z,14.38
2022-08-17T05:15:56.722Z,11.32
2022-08-17T05:18:02.759Z,13.30
2022-08-17T05:20:06.721Z,13.60
2022-08-17T05:22:09.719Z,16.25
2022-08-17T05:24:38.343Z,13.60
2022-08-17T05:26:36.517Z,10.98
2022-08-17T05:28:40.715Z,10.98
2022-08-17T05:30:49.372Z,13.40
2022-08-17T05:32:54.537Z,14.15
2022-08-17T05:35:00.530Z,16.13
2022-08-17T05:37:03.791Z,12.30
2022-08-17T05:39:06.832Z,9.68
2022-08-17T05:41:10.900Z,11.45
2022-08-17T05:43:17.395Z,11.82
2022-08-17T05:45:32.060Z,14.13
2022-08-17T05:47:46.187Z,13.02
2022-08-17T05:49:49.383Z,10.48
2022-08-17T05:52:19.836Z,10.57
2022-08-17T05:54:34.391Z,9.98
2022-08-17T05:56:59.927Z,12.07
2022-08-17T05:59:09.206Z,13.20
2022-08-17T06:01:25.826Z,8.90
2022-08-17T06:03:48.054Z,9.18
2022-08-17T06:06:10.912Z,10.60
2022-08-17T06:08:23.293Z,7.65
2022-08-17T06:10:32.230Z,9.85
2022-08-17T06:12:43.308Z,8.60
2022-08-17T06:14:57.299Z,9.23
2022-08-17T06:17:04.367Z,9.48
2022-08-17T06:19:15.480Z,12.77
2022-08-17T06:21:20.589Z,13.73
2022-08-17T06:23:37.376Z,9.90
2022-08-17T06:25:47.078Z,8.55
2022-08-17T06:27:54.082Z,12.90
2022-08-17T06:30:05.515Z,10.57
2022-08-17T06:32:12.195Z,11.07
2022-08-17T06:34:15.967Z,9.98
2022-08-17T06:36:38.213Z,10.10
2022-08-17T06:38:57.495Z,7.68
2022-08-17T06:41:11.367Z,7.93
2022-08-17T06:43:26.940Z,11.52
2022-08-17T06:45:34.583Z,7.40
2022-08-17T06:47:44.424Z,9.43
2022-08-17T06:52:06.950Z,7.40
2022-08-17T06:54:19.587Z,6.03
2022-08-17T06:56:54.319Z,7.85
2022-08-17T06:58:57.282Z,10.40
2022-08-17T07:01:05.834Z,10.27
2022-08-17T07:03:15.812Z,6.47
2022-08-17T07:05:21.545Z,12.00
2022-08-17T07:07:24.511Z,6.72
2022-08-17T07:09:35.542Z,7.57
2022-08-17T07:11:43.816Z,13.73
2022-08-17T07:13:55.185Z,6.63
2022-08-17T07:16:07.541Z,8.20
2022-08-17T07:18:11.090Z,11.10
2022-08-17T07:20:19.195Z,6.50
2022-08-17T07:22:29.940Z,7.93
2022-08-17T07:24:58.119Z,12.50
2022-08-17T07:27:10.006Z,15.55
2022-08-17T07:29:18.017Z,9.57
2022-08-17T07:33:28.343Z,11.68
2022-08-17T07:35:40.624Z,7.45
2022-08-17T07:37:47.277Z,9.90
2022-08-17T07:40:14.865Z,7.43
2022-08-17T07:42:15.860Z,5.93
2022-08-17T07:44:18.848Z,11.52
2022-08-17T07:46:23.798Z,6.68
2022-08-17T07:48:27.343Z,6.05
2022-08-17T07:50:30.707Z,10.85
2022-08-17T07:52:50.875Z,7.55
2022-08-17T07:54:55.075Z,7.80
2022-08-17T07:56:59.722Z,4.57
2022-08-17T07:59:15.182Z,4.72
2022-08-17T08:01:18.173Z,9.25
2022-08-17T08:03:26.212Z,10.43
2022-08-17T08:05:49.428Z,5.18
2022-08-17T08:07:56.823Z,4.60
2022-08-17T08:10:08.639Z,9.10
2022-08-17T08:12:25.684Z,4.78
2022-08-17T08:14:39.166Z,5.22
2022-08-17T08:16:57.240Z,8.00
2022-08-17T08:19:02.142Z,7.32
2022-08-17T08:21:07.903Z,5.57
2022-08-17T08:23:18.335Z,5.50
2022-08-17T08:25:30.959Z,7.53
2022-08-17T08:27:44.230Z,7.78
2022-08-17T08:29:55.354Z,6.03
2022-08-17T08:32:09.385Z,9.68
2022-08-17T08:34:47.994Z,6.15
2022-08-17T08:37:14.787Z,4.25
2022-08-17T08:39:30.171Z,6.07
2022-08-17T08:41:44.125Z,3.92
2022-08-17T08:43:58.565Z,9.40
2022-08-17T08:46:11.513Z,5.85
2022-08-17T08:48:56.362Z,7.07
2022-08-17T08:51:00.093Z,6.85
2022-08-17T08:53:25.641Z,8.00
2022-08-17T08:55:38.317Z,5.10
2022-08-17T08:57:48.616Z,7.30
2022-08-17T09:00:05.703Z,4.65
2022-08-17T09:02:24.000Z,3.97
2022-08-17T09:05:10.522Z,6.82
2022-08-17T09:07:11.563Z,7.88
2022-08-17T09:09:24.354Z,7.38
2022-08-17T09:12:02.183Z,4.18
2022-08-17T09:14:21.172Z,6.07
2022-08-17T09:16:29.355Z,3.35
2022-08-17T09:19:00.555Z,5.65
2022-08-17T09:21:07.612Z,4.47
2022-08-17T09:23:19.209Z,7.80
2022-08-17T09:25:25.813Z,5.35
2022-08-17T09:27:33.001Z,5.32
2022-08-17T09:29:42.700Z,5.55
2022-08-17T09:31:53.183Z,6.57
2022-08-17T09:34:02.021Z,5.28
2022-08-17T09:36:11.295Z,6.65
2022-08-17T09:40:27.084Z,5.40
2022-08-17T09:42:37.880Z,4.97
2022-08-17T09:44:47.072Z,3.03
2022-08-17T09:49:02.908Z,4.45
2022-08-17T09:51:10.923Z,6.00
2022-08-17T09:53:14.091Z,5.35
2022-08-17T09:55:17.183Z,4.07
2022-08-17T09:57:36.798Z,5.80
2022-08-17T09:59:50.311Z,4.50
2022-08-17T10:02:01.450Z,7.28
2022-08-17T10:04:42.437Z,4.45
2022-08-17T10:06:52.319Z,4.68
2022-08-17T10:09:01.790Z,5.85
2022-08-17T10:13:33.048Z,7.20
2022-08-17T10:15:48.913Z,3.47
2022-08-17T10:18:05.795Z,7.18
2022-08-17T10:20:17.673Z,6.28
2022-08-17T10:22:37.760Z,4.15
2022-08-17T10:25:21.618Z,8.48
2022-08-17T10:27:13.074Z,4.90
2022-08-17T10:29:20.678Z,3.63
2022-08-17T10:31:35.990Z,6.22
2022-08-17T10:33:49.272Z,5.43
2022-08-17T10:36:06.383Z,4.97
2022-08-17T10:38:35.820Z,4.75
2022-08-17T10:40:48.132Z,8.27
2022-08-17T10:42:58.505Z,6.88
2022-08-17T10:45:06.742Z,9.95
2022-08-17T10:47:12.148Z,4.25
2022-08-17T10:49:26.306Z,5.78
2022-08-17T10:51:41.275Z,6.60
2022-08-17T10:53:58.361Z,6.65
2022-08-17T10:56:44.812Z,5.38
2022-08-17T10:58:50.740Z,6.95
2022-08-17T11:00:58.461Z,6.20
2022-08-17T11:03:02.238Z,3.90
2022-08-17T11:05:29.430Z,5.57
2022-08-17T11:07:46.799Z,4.63
2022-08-17T11:10:17.334Z,4.40
2022-08-17T11:12:32.946Z,5.63
2022-08-17T11:14:54.870Z,6.43
2022-08-17T11:17:17.804Z,3.05
2022-08-17T11:19:41.443Z,5.63
2022-08-17T11:22:21.864Z,7.80
2022-08-17T11:24:35.467Z,7.53
2022-08-17T11:26:41.387Z,6.15
2022-08-17T11:28:47.985Z,3.75
2022-08-17T11:30:54.485Z,6.97
2022-08-17T11:32:57.579Z,5.97
2022-08-17T11:35:29.602Z,6.53
2022-08-17T11:37:46.700Z,4.28
2022-08-17T11:40:14.005Z,6.15
2022-08-17T11:42:30.109Z,6.88
2022-08-17T11:44:45.524Z,4.47
2022-08-17T11:47:08.907Z,3.92
2022-08-17T11:49:19.565Z,3.45
2022-08-17T11:51:24.587Z,5.88
2022-08-17T11:54:21.653Z,5.32
2022-08-17T11:56:51.817Z,2.90
2022-08-17T11:58:54.980Z,10.60
2022-08-17T12:01:00.220Z,4.97
2022-08-17T12:03:54.124Z,5.88
2022-08-17T12:06:04.167Z,5.40
2022-08-17T12:08:14.400Z,4.55
2022-08-17T12:10:21.884Z,9.02
2022-08-17T12:12:30.412Z,4.25
2022-08-17T12:15:08.186Z,5.85
2022-08-17T12:17:04.472Z,4.28
2022-08-17T12:21:27.530Z,5.00
2022-08-17T12:23:39.751Z,3.42
2022-08-17T12:25:47.604Z,6.50
2022-08-17T12:28:06.479Z,4.63
2022-08-17T12:30:14.387Z,5.78
2022-08-17T12:32:19.570Z,5.18
2022-08-17T12:34:25.578Z,2.95
2022-08-17T12:36:29.351Z,3.95
2022-08-17T12:38:34.130Z,7.22
2022-08-17T12:40:37.183Z,3.90
2022-08-17T12:42:40.264Z,4.00
2022-08-17T12:44:50.000Z,3.50
2022-08-17T12:46:59.531Z,3.03
2022-08-17T12:49:18.909Z,3.78
2022-08-17T12:51:21.879Z,4.97
2022-08-17T12:53:27.805Z,3.47
2022-08-17T12:55:36.618Z,3.00
2022-08-17T12:57:43.889Z,4.80
2022-08-17T12:59:53.214Z,4.68
2022-08-17T13:01:56.324Z,6.13
2022-08-17T13:04:00.446Z,3.72
2022-08-17T13:06:05.846Z,5.55
2022-08-17T13:08:15.696Z,5.95
2022-08-17T13:10:22.582Z,4.63
2022-08-17T13:12:31.155Z,8.30
2022-08-17T13:14:34.297Z,5.85
2022-08-17T13:16:39.990Z,4.18
2022-08-17T13:18:45.737Z,5.28
2022-08-17T13:20:51.854Z,4.25
2022-08-17T13:22:56.678Z,7.05
2022-08-17T13:25:02.733Z,6.55
2022-08-17T13:27:08.846Z,4.28
2022-08-17T13:29:21.256Z,4.88
2022-08-17T13:31:39.451Z,2.95
2022-08-17T13:34:16.677Z,4.72
2022-08-17T13:36:26.467Z,4.32
2022-08-17T13:38:39.436Z,6.40
2022-08-17T13:40:47.055Z,2.50
2022-08-17T13:42:53.820Z,5.53
2022-08-17T13:44:58.045Z,4.88
2022-08-17T13:47:01.987Z,5.03
2022-08-17T13:49:09.978Z,2.97
2022-08-17T13:51:27.952Z,4.82
2022-08-17T13:53:33.186Z,4.53
2022-08-17T13:55:36.397Z,2.95
2022-08-17T13:57:45.518Z,5.20
2022-08-17T14:01:59.047Z,4.72
2022-08-17T14:04:11.077Z,3.30
2022-08-17T14:06:14.812Z,2.88
2022-08-17T14:08:40.336Z,5.20
2022-08-17T14:10:43.394Z,5.10
2022-08-17T14:12:46.411Z,4.20
2022-08-17T14:14:49.364Z,2.72
2022-08-17T14:16:53.236Z,3.88
2022-08-17T14:18:57.463Z,2.85
2022-08-17T14:21:00.571Z,2.47
2022-08-17T14:23:03.546Z,5.00
2022-08-17T14:25:11.329Z,3.15
2022-08-17T14:27:14.388Z,9.15
2022-08-17T14:29:17.352Z,2.67
2022-08-17T14:31:20.455Z,5.15
2022-08-17T14:33:23.435Z,7.57
2022-08-17T14:35:26.565Z,3.67
2022-08-17T14:37:30.559Z,3.30
2022-08-17T14:39:33.615Z,9.80
2022-08-17T14:41:39.806Z,6.90
2022-08-17T14:43:42.809Z,4.45
2022-08-17T14:45:45.878Z,3.20
2022-08-17T14:47:48.930Z,6.45
2022-08-17T14:49:52.608Z,4.18
2022-08-17T14:51:56.760Z,5.05
2022-08-17T14:53:59.761Z,3.53
2022-08-17T14:56:02.973Z,2.58
2022-08-17T14:58:08.879Z,2.60
2022-08-17T15:00:13.627Z,3.53
2022-08-17T15:02:16.853Z,6.50
2022-08-17T15:04:19.845Z,7.93
2022-08-17T15:06:23.314Z,5.22
2022-08-17T15:08:26.325Z,4.68
2022-08-17T15:10:30.230Z,4.78
2022-08-17T15:12:34.459Z,3.03
2022-08-17T15:14:40.338Z,3.08
2022-08-17T15:16:43.341Z,3.65
2022-08-17T15:18:46.374Z,3.20
2022-08-17T15:20:50.235Z,6.53
2022-08-17T15:22:53.339Z,5.07
2022-08-17T15:24:56.413Z,3.05
2022-08-17T15:26:59.518Z,4.38
2022-08-17T15:29:02.545Z,6.13
2022-08-17T15:31:08.233Z,2.70
2022-08-17T15:33:14.225Z,2.95
2022-08-17T15:35:19.884Z,3.75
2022-08-17T15:37:30.877Z,8.32
2022-08-17T15:39:34.051Z,3.78
2022-08-17T15:41:37.004Z,5.78
2022-08-17T15:43:39.980Z,3.03
2022-08-17T15:45:43.485Z,3.00
2022-08-17T15:47:49.157Z,4.47
2022-08-17T15:49:56.666Z,2.85
2022-08-17T15:52:16.525Z,2.75
2022-08-17T15:54:22.865Z,4.72
2022-08-17T15:56:27.038Z,3.03
2022-08-17T15:58:33.596Z,3.90
2022-08-17T16:00:52.092Z,2.97
2022-08-17T16:03:45.812Z,3.45
2022-08-17T16:05:25.483Z,3.55
2022-08-17T16:07:28.821Z,3.33
2022-08-17T16:09:31.976Z,4.25
2022-08-17T16:11:34.984Z,3.10
2022-08-17T16:13:38.550Z,4.93
2022-08-17T16:15:41.733Z,2.53
2022-08-17T16:17:44.765Z,4.15
2022-08-17T16:19:51.584Z,3.05
2022-08-17T16:21:54.643Z,7.43
2022-08-17T16:24:00.375Z,4.85
2022-08-17T16:26:03.395Z,4.70
2022-08-17T16:28:06.546Z,5.18
2022-08-17T16:30:16.585Z,4.10
2022-08-17T16:32:31.992Z,3.40
2022-08-17T16:34:35.851Z,6.07
2022-08-17T16:36:41.612Z,4.63
2022-08-17T16:38:57.610Z,5.28
2022-08-17T16:41:00.697Z,3.47
2022-08-17T16:43:04.659Z,6.82
2022-08-17T16:45:11.658Z,3.92
2022-08-17T16:47:14.880Z,3.10
2022-08-17T16:49:24.503Z,4.85
2022-08-17T16:51:43.154Z,5.07
2022-08-17T16:53:46.143Z,4.95
2022-08-17T16:56:00.755Z,3.45
2022-08-17T16:58:04.495Z,5.43
2022-08-17T17:00:10.834Z,7.80
2022-08-17T17:02:15.410Z,3.03
2022-08-17T17:04:19.283Z,3.40
2022-08-17T17:06:31.113Z,4.53
2022-08-17T17:08:44.419Z,6.25
2022-08-17T17:10:49.635Z,5.97
2022-08-17T17:13:02.745Z,4.82
2022-08-17T17:15:08.534Z,5.88
2022-08-17T17:17:18.531Z,3.20
2022-08-17T17:19:34.523Z,5.38
2022-08-17T17:21:44.330Z,4.45
2022-08-17T17:23:54.713Z,5.53
2022-08-17T17:26:03.585Z,3.95
2022-08-17T17:28:15.106Z,7.90
2022-08-17T17:30:21.561Z,6.53
2022-08-17T17:32:33.879Z,3.58
2022-08-17T17:34:38.007Z,4.72
2022-08-17T17:36:44.136Z,6.20
2022-08-17T17:38:53.226Z,9.45
2022-08-17T17:41:02.254Z,5.35
2022-08-17T17:43:34.676Z,4.45
2022-08-17T17:45:40.820Z,5.28
2022-08-17T17:47:44.579Z,6.90
2022-08-17T17:49:47.891Z,9.95
2022-08-17T17:52:09.875Z,13.05
2022-08-17T17:54:30.013Z,7.57
2022-08-17T17:56:43.963Z,13.02
2022-08-17T17:59:01.520Z,14.63
2022-08-17T18:01:19.510Z,10.00
2022-08-17T18:03:36.964Z,9.30
2022-08-17T18:06:05.166Z,8.05
2022-08-17T18:08:19.386Z,8.25
2022-08-17T18:10:33.149Z,10.38
2022-08-17T18:12:43.478Z,6.03
2022-08-17T18:15:05.537Z,9.40
2022-08-17T18:17:08.605Z,12.02
2022-08-17T18:19:15.334Z,8.20
2022-08-17T18:21:21.022Z,6.05
2022-08-17T18:23:28.435Z,8.18
2022-08-17T18:25:43.928Z,4.53
2022-08-17T18:27:51.559Z,5.35
2022-08-17T18:29:56.906Z,4.22
2022-08-17T18:32:31.766Z,7.82
2022-08-17T18:34:47.323Z,7.50
2022-08-17T18:36:52.497Z,9.63
2022-08-17T18:39:11.133Z,6.95
2022-08-17T18:41:22.295Z,4.30
2022-08-17T18:43:27.861Z,5.65
2022-08-17T18:45:44.759Z,6.65
2022-08-17T18:47:53.826Z,4.70
2022-08-17T18:50:10.862Z,8.25
2022-08-17T18:52:15.940Z,6.68
2022-08-17T18:54:21.654Z,6.07
2022-08-17T18:56:32.665Z,6.22
2022-08-17T18:58:35.785Z,6.60
2022-08-17T19:00:40.994Z,6.63
2022-08-17T19:02:51.882Z,6.10
2022-08-17T19:05:04.796Z,5.80
2022-08-17T19:07:24.512Z,7.15
2022-08-17T19:11:36.635Z,6.53
2022-08-17T19:13:44.016Z,8.45
2022-08-17T19:16:11.394Z,6.00
2022-08-17T19:18:21.209Z,5.53
2022-08-17T19:20:30.382Z,5.97
2022-08-17T19:22:49.719Z,5.60
2022-08-17T19:25:02.710Z,5.93
2022-08-17T19:27:15.661Z,11.43
2022-08-17T19:29:26.456Z,10.35
2022-08-17T19:31:31.293Z,12.50
2022-08-17T19:33:34.775Z,12.73
2022-08-17T19:35:47.275Z,19.73
2022-08-17T19:38:02.731Z,18.17
2022-08-17T19:40:35.117Z,18.50
2022-08-17T19:42:49.953Z,21.88
2022-08-17T19:45:01.509Z,22.13
2022-08-17T19:47:17.230Z,19.35
2022-08-17T19:49:41.836Z,19.70
2022-08-17T19:51:49.614Z,18.38
2022-08-17T19:54:07.088Z,11.38
2022-08-17T19:56:18.255Z,10.55
2022-08-17T19:58:41.904Z,12.40
2022-08-17T20:00:51.717Z,8.85
2022-08-17T20:02:59.913Z,8.48
2022-08-17T20:05:08.562Z,10.32
2022-08-17T20:07:25.399Z,11.35
2022-08-17T20:09:34.642Z,11.95
2022-08-17T20:11:43.419Z,9.82
2022-08-17T20:13:55.838Z,11.30
2022-08-17T20:15:59.381Z,13.95
2022-08-17T20:18:07.598Z,13.38
2022-08-17T20:20:24.174Z,10.63
2022-08-17T20:22:30.843Z,12.57
2022-08-17T20:24:45.696Z,10.07
2022-08-17T20:26:58.361Z,10.15
2022-08-17T20:29:20.634Z,11.50
2022-08-17T20:31:43.994Z,15.05
2022-08-17T20:33:47.015Z,11.40
2022-08-17T20:36:11.975Z,13.75
2022-08-17T20:38:39.063Z,11.30
2022-08-17T20:41:10.561Z,19.90
2022-08-17T20:43:49.526Z,9.52
2022-08-17T20:46:15.582Z,13.65
2022-08-17T20:48:37.490Z,9.18
2022-08-17T20:50:45.482Z,12.77
2022-08-17T20:52:52.602Z,9.70
2022-08-17T20:54:57.066Z,14.80
2022-08-17T20:57:01.888Z,11.18
2022-08-17T20:59:09.455Z,14.90
2022-08-17T21:01:18.436Z,12.20
2022-08-17T21:03:52.348Z,17.93
2022-08-17T21:06:00.187Z,10.13
2022-08-17T21:08:15.059Z,11.50
2022-08-17T21:10:30.860Z,9.90
2022-08-17T21:12:43.098Z,11.60
2022-08-17T21:15:00.237Z,10.18
2022-08-17T21:17:21.011Z,11.52
2022-08-17T21:20:00.256Z,10.98
2022-08-17T21:22:16.646Z,16.23
2022-08-17T21:24:33.454Z,14.18
2022-08-17T21:26:50.276Z,13.02
2022-08-17T21:29:32.562Z,13.77
2022-08-17T21:31:35.172Z,12.70
2022-08-17T21:34:22.865Z,12.48
2022-08-17T21:36:26.915Z,14.77
2022-08-17T21:38:35.424Z,11.68
2022-08-17T21:40:43.446Z,9.85
2022-08-17T21:42:52.026Z,10.32
2022-08-17T21:44:59.373Z,13.32
2022-08-17T21:47:19.145Z,11.73
2022-08-17T21:49:28.471Z,16.40
2022-08-17T21:51:31.825Z,19.65
2022-08-17T21:53:40.117Z,13.82
2022-08-17T21:55:43.110Z,12.38
2022-08-17T21:57:52.799Z,11.73
2022-08-17T22:00:10.921Z,13.18
2022-08-17T22:02:19.497Z,11.75
2022-08-17T22:04:30.408Z,14.90
2022-08-17T22:06:40.288Z,11.00
2022-08-17T22:11:01.824Z,48.13
2022-08-17T22:13:16.735Z,12.38
2022-08-17T22:15:20.612Z,25.83
2022-08-17T22:17:25.681Z,11.77
2022-08-17T22:19:31.559Z,13.27
2022-08-17T22:21:34.624Z,16.42
2022-08-17T22:23:40.452Z,13.25
2022-08-17T22:25:59.074Z,10.98
2022-08-17T22:28:04.454Z,11.93
2022-08-17T22:30:17.070Z,15.88
2022-08-17T22:32:35.690Z,13.98
2022-08-17T22:34:41.302Z,13.30
2022-08-17T22:36:44.287Z,13.70
2022-08-17T22:38:47.550Z,16.33
2022-08-17T22:40:53.094Z,15.30
2022-08-17T22:42:57.198Z,13.27
2022-08-17T22:45:00.643Z,15.05
2022-08-17T22:47:06.909Z,14.10
2022-08-17T22:49:23.183Z,16.83
2022-08-17T22:51:30.684Z,15.75
2022-08-17T22:53:34.808Z,17.08
2022-08-17T22:55:37.861Z,18.70
2022-08-17T22:57:45.814Z,16.70
2022-08-17T22:59:51.291Z,17.50
2022-08-17T23:02:12.937Z,15.88
2022-08-17T23:04:32.161Z,17.00
2022-08-17T23:06:39.967Z,15.30
2022-08-17T23:08:43.180Z,14.75
2022-08-17T23:10:46.850Z,15.50
2022-08-17T23:12:50.219Z,15.60
2022-08-17T23:14:58.657Z,14.32
2022-08-17T23:17:02.094Z,14.82
2022-08-17T23:19:05.416Z,14.73
2022-08-17T23:21:08.553Z,15.27
2022-08-17T23:23:23.424Z,15.77
2022-08-17T23:25:29.265Z,12.98
2022-08-17T23:27:32.590Z,14.35
2022-08-17T23:29:36.063Z,14.38
2022-08-17T23:31:39.888Z,13.88
2022-08-17T23:33:43.263Z,14.95
2022-08-17T23:35:46.322Z,17.40
2022-08-17T23:37:49.305Z,18.00
2022-08-17T23:39:54.992Z,14.93
2022-08-17T23:41:58.939Z,17.20
2022-08-17T23:44:04.294Z,17.27
2022-08-17T23:46:07.348Z,20.92
2022-08-17T23:48:10.341Z,15.48
2022-08-17T23:50:14.026Z,23.65
2022-08-17T23:52:17.097Z,16.70
2022-08-17T23:54:23.295Z,15.93
2022-08-17T23:56:28.911Z,16.10
2022-08-17T23:58:31.941Z,15.38
